METAR Data
IDs: Format: Raw Decoded Include TAF

Data at: 0630 UTC 01 Aug 2021

LSZR 010620Z AUTO 26003KT 210V300 5000 RA BKN006 BKN008 BKN010 15/15 Q1011